Smartville, California
Current Conditions -  °F | °C
As of 3:58 AM on Monday 20 Oct 2014 (Local Time) from KBAB Reporting Station
Clear Clear  
Wind Chill: 14°   Ceiling: Unl
Heat Index: 14°   Visibility: 10mi
Dew Point: 10°   Wind: 8mph
Humidity: 75%   Direction: 150°SSE
Pressure: 29.86"   Gusts: NA
Location:  39.21°N, 121.3°W
Report Text: KBAB 201058Z AUTO 15007KT 10SM CLR 14/10 A2986 RMK AO2 SLP186 T01390095 $
Loading
Personal Weather Stations






























Interactive Weather Map
Tropical Storm Tracking
New forecast layout! Learn more

10-Day Weather Forecast

Advertisements
Track Severe Weather on mobile